KPNE/PNE METAR and TAF weather

Enter ICAO airport designator
Station Type Date Time Source
KPNE METAR 2022/11/27 07:54 UTC NOAA

KPNE 270754Z AUTO 00000KT 10SM CLR 05/M01 A2998 RMK AO2 SLP153 T00501006 $


Station Type Date Time Source
KPNE Decoded METAR 2022/11/27 07:54 UTC NOAA

N.E. PHILADELPHIA AIRPORT, PA, United States (KPNE) 40-05N 075-01W 28M
Nov 27, 2022 - 02:54 AM EST / 2022.11.27 0754 UTC
Wind: Calm:0
Visibility: 10 mile(s):0
Sky conditions: clear
Temperature: 41.0 F (5.0 C)
Dew Point: 30.9 F (-0.6 C)
Relative Humidity: 67%
Pressure (altimeter): 29.98 in. Hg (1015 hPa)
ob: KPNE 270754Z AUTO 00000KT 10SM CLR 05/M01 A2998 RMK AO2 SLP153 T00501006
cycle: 8

Station Type Date Time Source
KPNE TAF 2022/11/27 06:33 UTC NOAA

TAF KPNE 270530Z 2706/2806 21005KT P6SM BKN200
FM271500 19011KT 6SM -RA OVC040
FM271700 17010G18KT 2SM RA OVC007 WS020/22050KT
FM272300 22012G20KT 6SM -SHRA OVC015
FM280100 25014G24KT P6SM SCT040

Example: see airport list